sensor_id;sensor_type;location;lat;lon;timestamp;temperature;humidity
41080;DHT22;26826;50.718;7.114;2023-03-01T00:02:39;-0.50;99.90
41080;DHT22;26826;50.718;7.114;2023-03-01T00:12:40;-0.60;99.90
41080;DHT22;26826;50.718;7.114;2023-03-01T00:22:40;-0.70;99.90
41080;DHT22;26826;50.718;7.114;2023-03-01T00:32:41;-0.80;99.90
41080;DHT22;26826;50.718;7.114;2023-03-01T00:42:41;-0.90;99.90
41080;DHT22;26826;50.718;7.114;2023-03-01T00:52:42;-0.80;99.90
41080;DHT22;26826;50.718;7.114;2023-03-01T01:02:42;-0.80;99.90
41080;DHT22;26826;50.718;7.114;2023-03-01T01:12:46;-1.00;99.90
41080;DHT22;26826;50.718;7.114;2023-03-01T01:22:47;-1.10;99.90
41080;DHT22;26826;50.718;7.114;2023-03-01T01:32:47;-1.20;99.90
41080;DHT22;26826;50.718;7.114;2023-03-01T01:42:48;-1.20;99.90
41080;DHT22;26826;50.718;7.114;2023-03-01T01:52:50;-1.20;99.90
41080;DHT22;26826;50.718;7.114;2023-03-01T02:02:57;-1.30;99.90
41080;DHT22;26826;50.718;7.114;2023-03-01T02:13:01;-1.30;99.90
41080;DHT22;26826;50.718;7.114;2023-03-01T02:23:03;-1.40;99.90
41080;DHT22;26826;50.718;7.114;2023-03-01T02:33:04;-1.50;99.90
41080;DHT22;26826;50.718;7.114;2023-03-01T02:43:08;-1.60;99.90
41080;DHT22;26826;50.718;7.114;2023-03-01T02:53:17;-1.70;99.90
41080;DHT22;26826;50.718;7.114;2023-03-01T03:03:21;-1.60;99.90
41080;DHT22;26826;50.718;7.114;2023-03-01T03:13:22;-1.80;99.90
41080;DHT22;26826;50.718;7.114;2023-03-01T03:23:23;-1.80;99.90
41080;DHT22;26826;50.718;7.114;2023-03-01T03:33:24;-1.90;99.90
41080;DHT22;26826;50.718;7.114;2023-03-01T03:43:24;-1.90;99.90
41080;DHT22;26826;50.718;7.114;2023-03-01T03:53:27;-1.90;99.90
41080;DHT22;26826;50.718;7.114;2023-03-01T04:03:29;-2.10;99.90
41080;DHT22;26826;50.718;7.114;2023-03-01T04:13:30;-2.30;99.90
41080;DHT22;26826;50.718;7.114;2023-03-01T04:23:30;-2.30;99.90
41080;DHT22;26826;50.718;7.114;2023-03-01T04:33:31;-2.50;99.90
41080;DHT22;26826;50.718;7.114;2023-03-01T04:43:31;-2.60;99.90
41080;DHT22;26826;50.718;7.114;2023-03-01T04:53:32;-2.60;99.90
41080;DHT22;26826;50.718;7.114;2023-03-01T05:03:33;-2.60;99.90
41080;DHT22;26826;50.718;7.114;2023-03-01T05:13:33;-2.60;99.90
41080;DHT22;26826;50.718;7.114;2023-03-01T05:23:34;-2.70;99.90
41080;DHT22;26826;50.718;7.114;2023-03-01T05:33:36;-2.60;99.90
41080;DHT22;26826;50.718;7.114;2023-03-01T05:43:37;-2.70;99.90
41080;DHT22;26826;50.718;7.114;2023-03-01T05:53:39;-2.80;99.90
41080;DHT22;26826;50.718;7.114;2023-03-01T06:03:39;-2.80;99.90
41080;DHT22;26826;50.718;7.114;2023-03-01T06:13:44;-2.80;99.90
41080;DHT22;26826;50.718;7.114;2023-03-01T06:23:44;-2.80;99.90
41080;DHT22;26826;50.718;7.114;2023-03-01T06:33:45;-2.70;99.90
41080;DHT22;26826;50.718;7.114;2023-03-01T06:43:45;-2.90;99.90
41080;DHT22;26826;50.718;7.114;2023-03-01T06:53:46;-2.90;99.90
41080;DHT22;26826;50.718;7.114;2023-03-01T07:03:47;-2.80;99.90
41080;DHT22;26826;50.718;7.114;2023-03-01T07:13:47;-2.70;99.90
41080;DHT22;26826;50.718;7.114;2023-03-01T07:23:48;-2.40;99.90
41080;DHT22;26826;50.718;7.114;2023-03-01T07:33:49;-2.30;99.90
41080;DHT22;26826;50.718;7.114;2023-03-01T07:43:49;-2.10;99.90
41080;DHT22;26826;50.718;7.114;2023-03-01T07:53:50;-1.90;99.90
41080;DHT22;26826;50.718;7.114;2023-03-01T08:03:51;-1.40;99.90
41080;DHT22;26826;50.718;7.114;2023-03-01T08:13:51;-0.10;99.90
41080;DHT22;26826;50.718;7.114;2023-03-01T08:23:52;1.80;99.90
41080;DHT22;26826;50.718;7.114;2023-03-01T08:33:56;1.40;99.90
41080;DHT22;26826;50.718;7.114;2023-03-01T08:54:58;2.00;99.90
41080;DHT22;26826;50.718;7.114;2023-03-01T09:05:01;2.20;99.90
41080;DHT22;26826;50.718;7.114;2023-03-01T09:15:02;3.70;99.90
41080;DHT22;26826;50.718;7.114;2023-03-01T09:25:03;4.60;99.90
41080;DHT22;26826;50.718;7.114;2023-03-01T09:35:04;5.70;99.90
41080;DHT22;26826;50.718;7.114;2023-03-01T09:45:10;6.60;99.90
41080;DHT22;26826;50.718;7.114;2023-03-01T09:55:26;7.10;98.40
41080;DHT22;26826;50.718;7.114;2023-03-01T10:15:55;8.40;97.30
41080;DHT22;26826;50.718;7.114;2023-03-01T10:26:19;9.40;95.60
41080;DHT22;26826;50.718;7.114;2023-03-01T10:36:24;10.00;95.30
41080;DHT22;26826;50.718;7.114;2023-03-01T10:46:28;11.50;93.30
41080;DHT22;26826;50.718;7.114;2023-03-01T10:56:29;10.40;94.20
41080;DHT22;26826;50.718;7.114;2023-03-01T11:06:58;11.30;92.50
41080;DHT22;26826;50.718;7.114;2023-03-01T11:17:05;11.40;90.90
41080;DHT22;26826;50.718;7.114;2023-03-01T11:27:34;11.70;90.90
41080;DHT22;26826;50.718;7.114;2023-03-01T11:38:13;9.80;91.80
41080;DHT22;26826;50.718;7.114;2023-03-01T12:09:17;12.00;89.60
41080;DHT22;26826;50.718;7.114;2023-03-01T12:20:02;13.60;87.80
41080;DHT22;26826;50.718;7.114;2023-03-01T12:30:54;14.80;84.20
41080;DHT22;26826;50.718;7.114;2023-03-01T12:51:36;15.10;80.30
41080;DHT22;26826;50.718;7.114;2023-03-01T13:02:09;17.40;76.30
41080;DHT22;26826;50.718;7.114;2023-03-01T13:43:36;17.90;69.20
41080;DHT22;26826;50.718;7.114;2023-03-01T13:53:40;18.30;68.00
41080;DHT22;26826;50.718;7.114;2023-03-01T14:03:42;17.90;68.70
41080;DHT22;26826;50.718;7.114;2023-03-01T14:14:00;18.10;68.20
41080;DHT22;26826;50.718;7.114;2023-03-01T14:24:05;17.10;67.80
41080;DHT22;26826;50.718;7.114;2023-03-01T14:34:06;16.50;68.10
41080;DHT22;26826;50.718;7.114;2023-03-01T14:44:11;16.10;68.30
41080;DHT22;26826;50.718;7.114;2023-03-01T15:04:22;15.30;69.00
41080;DHT22;26826;50.718;7.114;2023-03-01T15:14:43;15.00;68.30
41080;DHT22;26826;50.718;7.114;2023-03-01T15:24:50;14.80;68.50
41080;DHT22;26826;50.718;7.114;2023-03-01T15:34:51;14.60;68.20
41080;DHT22;26826;50.718;7.114;2023-03-01T15:45:11;13.70;66.60
41080;DHT22;26826;50.718;7.114;2023-03-01T15:55:22;13.30;67.60
41080;DHT22;26826;50.718;7.114;2023-03-01T16:05:25;13.30;67.90
41080;DHT22;26826;50.718;7.114;2023-03-01T16:15:29;12.80;68.00
41080;DHT22;26826;50.718;7.114;2023-03-01T16:25:31;12.60;68.10
41080;DHT22;26826;50.718;7.114;2023-03-01T16:35:32;11.80;68.70
41080;DHT22;26826;50.718;7.114;2023-03-01T16:45:34;11.50;73.30
41080;DHT22;26826;50.718;7.114;2023-03-01T16:55:35;10.80;76.10
41080;DHT22;26826;50.718;7.114;2023-03-01T17:05:40;10.10;77.60
41080;DHT22;26826;50.718;7.114;2023-03-01T17:15:41;9.50;79.90
41080;DHT22;26826;50.718;7.114;2023-03-01T17:25:43;9.00;81.60
41080;DHT22;26826;50.718;7.114;2023-03-01T17:35:45;8.20;82.50
41080;DHT22;26826;50.718;7.114;2023-03-01T17:45:46;7.80;83.70
41080;DHT22;26826;50.718;7.114;2023-03-01T17:55:48;7.50;83.80
41080;DHT22;26826;50.718;7.114;2023-03-01T18:05:53;7.30;79.60
41080;DHT22;26826;50.718;7.114;2023-03-01T18:15:53;7.20;78.80
41080;DHT22;26826;50.718;7.114;2023-03-01T18:26:03;6.90;79.50
41080;DHT22;26826;50.718;7.114;2023-03-01T18:36:05;6.70;80.30
41080;DHT22;26826;50.718;7.114;2023-03-01T18:46:06;6.40;80.80
41080;DHT22;26826;50.718;7.114;2023-03-01T18:56:07;6.20;80.60
41080;DHT22;26826;50.718;7.114;2023-03-01T19:06:08;6.10;80.60
41080;DHT22;26826;50.718;7.114;2023-03-01T19:16:14;6.00;80.70
41080;DHT22;26826;50.718;7.114;2023-03-01T19:26:18;5.80;81.40
41080;DHT22;26826;50.718;7.114;2023-03-01T19:36:19;5.50;82.10
41080;DHT22;26826;50.718;7.114;2023-03-01T19:46:20;5.40;81.90
41080;DHT22;26826;50.718;7.114;2023-03-01T19:56:21;5.20;83.20
41080;DHT22;26826;50.718;7.114;2023-03-01T20:06:21;4.70;84.50
41080;DHT22;26826;50.718;7.114;2023-03-01T20:16:22;4.50;87.50
41080;DHT22;26826;50.718;7.114;2023-03-01T20:26:23;4.20;89.10
41080;DHT22;26826;50.718;7.114;2023-03-01T20:36:46;4.00;90.40
41080;DHT22;26826;50.718;7.114;2023-03-01T20:46:46;3.70;90.80
41080;DHT22;26826;50.718;7.114;2023-03-01T20:56:47;3.60;91.90
41080;DHT22;26826;50.718;7.114;2023-03-01T21:06:48;3.50;91.60
41080;DHT22;26826;50.718;7.114;2023-03-01T21:16:50;3.30;91.90
41080;DHT22;26826;50.718;7.114;2023-03-01T21:26:51;3.00;92.80
41080;DHT22;26826;50.718;7.114;2023-03-01T21:36:51;2.90;92.70
41080;DHT22;26826;50.718;7.114;2023-03-01T21:46:53;2.70;93.50
41080;DHT22;26826;50.718;7.114;2023-03-01T21:56:53;2.60;94.20
41080;DHT22;26826;50.718;7.114;2023-03-01T22:06:54;2.40;95.00
41080;DHT22;26826;50.718;7.114;2023-03-01T22:16:55;2.20;96.00
41080;DHT22;26826;50.718;7.114;2023-03-01T22:26:56;2.10;96.80
41080;DHT22;26826;50.718;7.114;2023-03-01T22:36:56;2.10;97.30
41080;DHT22;26826;50.718;7.114;2023-03-01T22:46:57;1.90;97.70
41080;DHT22;26826;50.718;7.114;2023-03-01T22:56:58;1.80;99.20
41080;DHT22;26826;50.718;7.114;2023-03-01T23:06:59;1.60;99.90
41080;DHT22;26826;50.718;7.114;2023-03-01T23:17:00;1.60;99.90
41080;DHT22;26826;50.718;7.114;2023-03-01T23:27:01;1.80;99.90
41080;DHT22;26826;50.718;7.114;2023-03-01T23:37:02;1.60;99.90
41080;DHT22;26826;50.718;7.114;2023-03-01T23:47:03;1.40;99.90
41080;DHT22;26826;50.718;7.114;2023-03-01T23:57:04;1.20;99.90
